Puerto Cabezas, Nicaragua

7:48 PM CST on July 06, 2015 (GMT -0600)
Puerto Cabezas | | Change Station
CLOSE
Current Station
Airport
Location: Puerto Cabezas,
Elevation: 66 ft
Nearby Weather Stations

Elev 66 ft 14.05 °N, 83.39 °W | Updated 2 hours ago

Scattered Clouds
Scattered Clouds
84 °F
Feels Like 96 °F
N
12
Wind Variable Wind from ENE

Today
High -- | Low -- °F
--% Chance of Precip.
Yesterday
High -- | Low -- °F
Precip. -- in
5:10 AM 6:05 PM
Waning Gibbous, 70% visible
Pressure 29.89 in
Visibility 4.3 miles
Clouds Mostly Cloudy 1600 ft
Scattered Clouds 30000 ft
Heat Index 96 °F
Dew Point 79 °F
Humidity 84%
Rainfall 0.00 in
Snow Depth Not available.
UV 1 out of 12
Pollen Not available.
Air Quality Not available.
Flu Activity Not available.
METAR MNPC 062300Z 07010KT 7000 BKN016 SCT300 29/26 Q1012 HZ

More Conditions Fewer Conditions

Pressure 29.89 in
Visibility 4.3 miles
Clouds Mostly Cloudy 1600 ft
Scattered Clouds 30000 ft
Heat Index 96 °F
Dew Point 79 °F
Humidity 84%
Rainfall 0.00 in
Snow Depth Not available.
UV 1 out of 12
Pollen Not available.
Air Quality Not available.
Flu Activity Not available.
METAR MNPC 062300Z 07010KT 7000 BKN016 SCT300 29/26 Q1012 HZ

More Conditions Fewer Conditions

10-Day Weather Forecast

×

Almanac

Astronomy

Jul. 06, 2015 Rise Set
Actual Time
Civil Twilight
Nautical Twilight
Astronomical Twilight
Moon
Length of Visible Light
Length of Day
Tomorrow will be .
, % of the Moon is Illuminated

Today's Extremes

Country Highs Country Lows

Community

WunderPhotos

Upload Photos

1,835,692 photos uploaded!

WunderBlogs® & News

Nearby

Air Quality

  Air Quality AQ Index Pollutant
Not available.

Snow Depth

Station Depth Elevation

Earthquake Activity

City Distance Mag. Time & Date
Minimum magnitude displayed is 2.5.

Coastal Water Temperatures

Place Temperature

Stations

Nearby Weather Stations

Station Location Temp. Windchill Dew Point Humidity Wind Precip. Elev Updated Type